createdAt,value
2018-11-14T00:00:56.095Z,8.61
2018-11-14T00:01:56.072Z,8.59
2018-11-14T00:02:56.051Z,8.59
2018-11-14T00:03:56.030Z,8.72
2018-11-14T00:04:56.003Z,8.69
2018-11-14T00:05:55.986Z,8.68
2018-11-14T00:06:55.992Z,8.75
2018-11-14T00:07:55.935Z,8.66
2018-11-14T00:08:56.003Z,8.66
2018-11-14T00:09:55.891Z,8.64
2018-11-14T00:10:55.869Z,8.71
2018-11-14T00:11:55.846Z,8.68
2018-11-14T00:12:55.821Z,8.64
2018-11-14T00:13:55.801Z,8.60
2018-11-14T00:14:55.777Z,8.60
2018-11-14T00:15:55.758Z,8.56
2018-11-14T00:16:55.731Z,8.56
2018-11-14T00:17:55.710Z,8.60
2018-11-14T00:18:55.690Z,8.60
2018-11-14T00:19:56.021Z,8.53
2018-11-14T00:20:55.642Z,8.53
2018-11-14T00:21:55.618Z,8.54
2018-11-14T00:22:55.594Z,8.54
2018-11-14T00:23:55.574Z,8.53
2018-11-14T00:24:55.549Z,8.66
2018-11-14T00:25:55.531Z,8.60
2018-11-14T00:26:55.504Z,8.57
2018-11-14T00:27:55.532Z,8.60
2018-11-14T00:28:55.524Z,8.60
2018-11-14T00:29:55.433Z,8.66
2018-11-14T00:30:55.426Z,8.63
2018-11-14T00:31:55.388Z,8.66
2018-11-14T00:32:55.377Z,8.57
2018-11-14T00:33:55.344Z,8.64
2018-11-14T00:34:55.356Z,8.54
2018-11-14T00:35:55.301Z,8.56
2018-11-14T00:36:55.351Z,8.50
2018-11-14T00:37:55.251Z,8.44
2018-11-14T00:38:55.228Z,8.44
2018-11-14T00:39:55.208Z,8.49
2018-11-14T00:40:55.184Z,8.42
2018-11-14T00:41:55.165Z,8.46
2018-11-14T00:42:55.136Z,8.45
2018-11-14T00:43:55.115Z,8.45
2018-11-14T00:44:55.093Z,8.36
2018-11-14T00:45:55.069Z,8.35
2018-11-14T00:46:55.046Z,8.41
2018-11-14T00:47:55.022Z,8.44
2018-11-14T00:48:54.998Z,8.49
2018-11-14T00:49:54.979Z,8.39
2018-11-14T00:50:54.954Z,8.38
2018-11-14T00:51:54.932Z,8.44
2018-11-14T00:52:54.907Z,8.28
2018-11-14T00:53:54.884Z,8.35
2018-11-14T00:54:54.861Z,8.34
2018-11-14T00:55:54.841Z,8.36
2018-11-14T00:56:54.817Z,8.27
2018-11-14T00:57:54.793Z,8.39
2018-11-14T00:58:54.769Z,8.38
2018-11-14T00:59:54.759Z,8.35
2018-11-14T01:00:54.727Z,8.38
2018-11-14T01:01:54.700Z,8.31
2018-11-14T01:02:54.677Z,8.21
2018-11-14T01:03:54.673Z,8.17
2018-11-14T01:04:54.635Z,8.17
2018-11-14T01:05:54.608Z,8.18
2018-11-14T01:06:54.584Z,8.24
2018-11-14T01:07:54.562Z,8.11
2018-11-14T01:08:54.539Z,8.14
2018-11-14T01:09:54.712Z,8.24
2018-11-14T01:10:54.494Z,8.14
2018-11-14T01:11:54.470Z,8.16
2018-11-14T01:12:54.477Z,8.18
2018-11-14T01:13:54.424Z,8.03
2018-11-14T01:14:54.402Z,8.03
2018-11-14T01:15:54.378Z,8.14
2018-11-14T01:16:54.357Z,8.20
2018-11-14T01:17:54.330Z,8.16
2018-11-14T01:18:54.308Z,8.06
2018-11-14T01:19:54.285Z,8.16
2018-11-14T01:20:54.261Z,8.08
2018-11-14T01:21:54.239Z,8.16
2018-11-14T01:22:54.220Z,8.09
2018-11-14T01:23:54.191Z,8.11
2018-11-14T01:24:54.170Z,8.06
2018-11-14T01:25:54.149Z,8.11
2018-11-14T01:26:54.130Z,8.09
2018-11-14T01:27:54.100Z,8.13
2018-11-14T01:28:54.079Z,8.14
2018-11-14T01:29:54.054Z,8.05
2018-11-14T01:30:54.033Z,8.01
2018-11-14T01:31:54.008Z,8.03
2018-11-14T01:32:54.017Z,8.01
2018-11-14T01:33:53.975Z,8.06
2018-11-14T01:34:53.942Z,8.06
2018-11-14T01:35:53.952Z,7.99
2018-11-14T01:36:53.896Z,7.98
2018-11-14T01:37:53.901Z,7.88
2018-11-14T01:38:53.846Z,7.93
2018-11-14T01:39:53.821Z,7.96
2018-11-14T01:40:53.798Z,8.05
2018-11-14T01:41:53.777Z,8.05
2018-11-14T01:42:53.753Z,8.03
2018-11-14T01:43:53.730Z,8.05
2018-11-14T01:44:53.708Z,8.09
2018-11-14T01:45:53.683Z,7.99
2018-11-14T01:46:53.661Z,8.02
2018-11-14T01:47:53.637Z,8.03
2018-11-14T01:48:53.615Z,8.01
2018-11-14T01:49:53.594Z,7.96
2018-11-14T01:50:53.569Z,8.01
2018-11-14T01:51:53.544Z,7.93
2018-11-14T01:52:53.522Z,7.91
2018-11-14T01:53:53.499Z,7.87
2018-11-14T01:54:53.475Z,7.87
2018-11-14T01:55:53.452Z,7.93
2018-11-14T01:56:53.427Z,7.93
2018-11-14T01:57:53.407Z,7.87
2018-11-14T01:58:53.383Z,7.88
2018-11-14T01:59:53.357Z,7.91
2018-11-14T02:00:53.336Z,7.90
2018-11-14T02:01:53.313Z,7.80
2018-11-14T02:02:53.293Z,7.87
2018-11-14T02:03:53.265Z,7.88
2018-11-14T02:04:53.244Z,7.81
2018-11-14T02:05:53.218Z,7.87
2018-11-14T02:06:53.198Z,7.84
2018-11-14T02:07:53.174Z,7.84
2018-11-14T02:08:53.148Z,7.87
2018-11-14T02:09:53.162Z,7.84
2018-11-14T02:10:53.129Z,7.85
2018-11-14T02:11:53.084Z,7.80
2018-11-14T02:12:53.058Z,7.81
2018-11-14T02:13:53.036Z,7.80
2018-11-14T02:14:53.013Z,7.80
2018-11-14T02:15:52.986Z,7.80
2018-11-14T02:16:52.962Z,7.80
2018-11-14T02:17:52.940Z,7.77
2018-11-14T02:18:52.916Z,7.78
2018-11-14T02:19:52.896Z,7.83
2018-11-14T02:20:52.873Z,7.75
2018-11-14T02:21:52.849Z,7.75
2018-11-14T02:22:52.823Z,7.80
2018-11-14T02:23:52.802Z,7.81
2018-11-14T02:24:52.779Z,7.78
2018-11-14T02:25:52.753Z,7.81
2018-11-14T02:26:52.734Z,7.75
2018-11-14T02:27:52.707Z,7.85
2018-11-14T02:28:52.686Z,7.84
2018-11-14T02:29:52.661Z,7.78
2018-11-14T02:30:52.636Z,7.81
2018-11-14T02:31:52.614Z,7.85
2018-11-14T02:32:52.589Z,7.80
2018-11-14T02:33:52.572Z,7.87
2018-11-14T02:34:52.601Z,7.81
2018-11-14T02:35:52.520Z,7.77
2018-11-14T02:36:52.497Z,7.83
2018-11-14T02:37:52.480Z,7.83
2018-11-14T02:38:52.451Z,7.75
2018-11-14T02:39:52.427Z,7.83
2018-11-14T02:40:52.404Z,7.80
2018-11-14T02:41:53.310Z,7.75
2018-11-14T02:42:52.359Z,7.69
2018-11-14T02:43:52.335Z,7.69
2018-11-14T02:44:52.311Z,7.77
2018-11-14T02:45:52.297Z,7.77
2018-11-14T02:46:52.265Z,7.78
2018-11-14T02:47:52.242Z,7.84
2018-11-14T02:48:52.223Z,7.81
2018-11-14T02:49:52.197Z,7.75
2018-11-14T02:50:52.174Z,7.78
2018-11-14T02:51:52.148Z,7.81
2018-11-14T02:52:52.125Z,7.74
2018-11-14T02:53:52.099Z,7.75
2018-11-14T02:54:52.078Z,7.78
2018-11-14T02:55:52.059Z,7.78
2018-11-14T02:56:52.030Z,7.80
2018-11-14T02:57:52.006Z,7.81
2018-11-14T02:58:51.983Z,7.74
2018-11-14T02:59:51.961Z,7.77
2018-11-14T03:00:51.936Z,7.75
2018-11-14T03:01:51.914Z,7.81
2018-11-14T03:02:51.893Z,7.75
2018-11-14T03:03:51.865Z,7.77
2018-11-14T03:04:51.843Z,7.80
2018-11-14T03:05:51.837Z,7.72
2018-11-14T03:06:51.801Z,7.75
2018-11-14T03:07:51.772Z,7.75
2018-11-14T03:08:51.751Z,7.80
2018-11-14T03:09:51.725Z,7.80
2018-11-14T03:10:51.703Z,7.81
2018-11-14T03:11:51.680Z,7.80
2018-11-14T03:12:51.655Z,7.78
2018-11-14T03:13:51.679Z,7.75
2018-11-14T03:14:51.614Z,7.87
2018-11-14T03:15:51.584Z,7.87
2018-11-14T03:16:51.569Z,7.87
2018-11-14T03:17:51.541Z,7.85
2018-11-14T03:18:51.515Z,7.87
2018-11-14T03:19:51.494Z,7.80
2018-11-14T03:20:51.468Z,7.84
2018-11-14T03:21:51.446Z,7.78
2018-11-14T03:22:51.425Z,7.75
2018-11-14T03:23:51.397Z,7.67
2018-11-14T03:24:51.377Z,7.69
2018-11-14T03:25:51.351Z,7.69
2018-11-14T03:26:51.329Z,7.70
2018-11-14T03:27:51.305Z,7.74
2018-11-14T03:28:51.292Z,7.72
2018-11-14T03:29:51.260Z,7.66
2018-11-14T03:30:51.235Z,7.75
2018-11-14T03:31:51.211Z,7.69
2018-11-14T03:32:51.188Z,7.72
2018-11-14T03:33:51.165Z,7.70
2018-11-14T03:34:51.143Z,7.67
2018-11-14T03:35:51.117Z,7.77
2018-11-14T03:36:51.096Z,7.62
2018-11-14T03:37:51.075Z,7.67
2018-11-14T03:38:51.048Z,7.66
2018-11-14T03:39:51.024Z,7.74
2018-11-14T03:40:51.007Z,7.66
2018-11-14T03:41:50.977Z,7.75
2018-11-14T03:42:51.718Z,7.72
2018-11-14T03:43:50.932Z,7.77
2018-11-14T03:44:50.906Z,7.64
2018-11-14T03:45:50.883Z,7.66
2018-11-14T03:46:50.861Z,7.72
2018-11-14T03:47:50.839Z,7.77
2018-11-14T03:48:50.813Z,7.70
2018-11-14T03:49:50.790Z,7.66
2018-11-14T03:50:50.766Z,7.72
2018-11-14T03:51:50.741Z,7.74
2018-11-14T03:52:50.719Z,7.66
2018-11-14T03:53:50.695Z,7.75
2018-11-14T03:54:50.672Z,7.70
2018-11-14T03:55:50.647Z,7.66
2018-11-14T03:56:50.626Z,7.81
2018-11-14T03:57:50.602Z,7.75
2018-11-14T03:58:50.578Z,7.61
2018-11-14T03:59:50.553Z,7.67
2018-11-14T04:00:50.530Z,7.66
2018-11-14T04:01:50.508Z,7.66
2018-11-14T04:02:50.485Z,7.77
2018-11-14T04:03:50.463Z,7.64
2018-11-14T04:04:50.437Z,7.72
2018-11-14T04:05:50.418Z,7.72
2018-11-14T04:06:50.421Z,7.58
2018-11-14T04:07:50.367Z,7.69
2018-11-14T04:08:50.345Z,7.72
2018-11-14T04:09:50.320Z,7.55
2018-11-14T04:10:50.298Z,7.56
2018-11-14T04:11:50.276Z,7.55
2018-11-14T04:12:50.252Z,7.56
2018-11-14T04:13:50.227Z,7.61
2018-11-14T04:14:50.206Z,7.55
2018-11-14T04:15:50.184Z,7.61
2018-11-14T04:16:50.159Z,7.59
2018-11-14T04:17:50.137Z,7.55
2018-11-14T04:18:50.120Z,7.62
2018-11-14T04:19:50.084Z,7.48
2018-11-14T04:20:50.081Z,7.47
2018-11-14T04:21:50.051Z,7.46
2018-11-14T04:22:50.016Z,7.46
2018-11-14T04:23:49.991Z,7.44
2018-11-14T04:24:49.975Z,7.46
2018-11-14T04:25:49.946Z,7.41
2018-11-14T04:26:49.922Z,7.41
2018-11-14T04:27:49.898Z,7.43
2018-11-14T04:28:49.874Z,7.46
2018-11-14T04:29:49.851Z,7.46
2018-11-14T04:30:49.828Z,7.39
2018-11-14T04:31:49.807Z,7.44
2018-11-14T04:32:49.785Z,7.39
2018-11-14T04:33:49.759Z,7.40
2018-11-14T04:34:49.735Z,7.40
2018-11-14T04:35:49.710Z,7.33
2018-11-14T04:36:49.686Z,7.31
2018-11-14T04:37:49.662Z,7.28
2018-11-14T04:38:49.640Z,7.36
2018-11-14T04:39:49.619Z,7.25
2018-11-14T04:40:49.595Z,7.29
2018-11-14T04:41:49.569Z,7.37
2018-11-14T04:42:49.545Z,7.26
2018-11-14T04:43:50.198Z,7.28
2018-11-14T04:44:49.502Z,7.26
2018-11-14T04:45:49.475Z,7.32
2018-11-14T04:46:49.453Z,7.31
2018-11-14T04:47:49.451Z,7.26
2018-11-14T04:48:49.404Z,7.31
2018-11-14T04:49:49.383Z,7.29
2018-11-14T04:50:49.361Z,7.29
2018-11-14T04:51:49.335Z,7.33
2018-11-14T04:52:49.313Z,7.32
2018-11-14T04:53:49.290Z,7.28
2018-11-14T04:54:49.266Z,7.23
2018-11-14T04:55:49.242Z,7.25
2018-11-14T04:56:49.218Z,7.28
2018-11-14T04:57:49.194Z,7.31
2018-11-14T04:58:49.172Z,7.28
2018-11-14T04:59:49.146Z,7.26
2018-11-14T05:00:49.125Z,7.25
2018-11-14T05:01:49.099Z,7.28
2018-11-14T05:02:49.079Z,7.23
2018-11-14T05:03:49.052Z,7.26
2018-11-14T05:04:49.063Z,7.23
2018-11-14T05:05:49.007Z,7.22
2018-11-14T05:06:48.984Z,7.28
2018-11-14T05:07:48.959Z,7.21
2018-11-14T05:08:48.937Z,7.33
2018-11-14T05:09:48.912Z,7.28
2018-11-14T05:10:48.888Z,7.28
2018-11-14T05:11:48.863Z,7.31
2018-11-14T05:12:48.909Z,7.28
2018-11-14T05:13:48.828Z,7.29
2018-11-14T05:14:48.795Z,7.28
2018-11-14T05:15:48.771Z,7.28
2018-11-14T05:16:48.747Z,7.25
2018-11-14T05:17:48.721Z,7.21
2018-11-14T05:18:48.702Z,7.32
2018-11-14T05:19:48.676Z,7.29
2018-11-14T05:20:48.653Z,7.28
2018-11-14T05:21:48.630Z,7.44
2018-11-14T05:22:48.609Z,7.41
2018-11-14T05:23:48.584Z,7.41
2018-11-14T05:24:48.652Z,7.44
2018-11-14T05:25:48.535Z,7.41
2018-11-14T05:26:48.512Z,7.43
2018-11-14T05:27:48.486Z,7.33
2018-11-14T05:28:48.465Z,7.39
2018-11-14T05:29:48.440Z,7.33
2018-11-14T05:30:48.418Z,7.41
2018-11-14T05:31:48.455Z,7.46
2018-11-14T05:32:48.408Z,7.41
2018-11-14T05:33:48.348Z,7.43
2018-11-14T05:34:48.324Z,7.39
2018-11-14T05:35:48.301Z,7.48
2018-11-14T05:36:48.275Z,7.44
2018-11-14T05:37:48.255Z,7.44
2018-11-14T05:38:48.229Z,7.43
2018-11-14T05:39:48.274Z,7.44
2018-11-14T05:40:48.182Z,7.40
2018-11-14T05:41:48.158Z,7.41
2018-11-14T05:42:48.147Z,7.40
2018-11-14T05:43:48.110Z,7.44
2018-11-14T05:44:48.791Z,7.47
2018-11-14T05:45:48.063Z,7.50
2018-11-14T05:46:48.039Z,7.41
2018-11-14T05:47:48.019Z,7.46
2018-11-14T05:48:47.994Z,7.43
2018-11-14T05:49:47.971Z,7.41
2018-11-14T05:50:47.945Z,7.46
2018-11-14T05:51:47.928Z,7.50
2018-11-14T05:52:47.897Z,7.50
2018-11-14T05:53:47.873Z,7.47
2018-11-14T05:54:47.872Z,7.58
2018-11-14T05:55:47.827Z,7.46
2018-11-14T05:56:47.802Z,7.48
2018-11-14T05:57:47.807Z,7.51
2018-11-14T05:58:47.755Z,7.48
2018-11-14T05:59:47.736Z,7.46
2018-11-14T06:00:47.709Z,7.48
2018-11-14T06:01:47.719Z,7.46
2018-11-14T06:02:47.670Z,7.44
2018-11-14T06:03:47.651Z,7.41
2018-11-14T06:04:47.614Z,7.43
2018-11-14T06:05:47.595Z,7.47
2018-11-14T06:06:47.571Z,7.43
2018-11-14T06:07:47.547Z,7.31
2018-11-14T06:08:47.520Z,7.28
2018-11-14T06:09:47.514Z,7.26
2018-11-14T06:10:47.475Z,7.31
2018-11-14T06:11:47.448Z,7.22
2018-11-14T06:12:47.717Z,7.22
2018-11-14T06:13:47.402Z,7.32
2018-11-14T06:14:47.379Z,7.33
2018-11-14T06:15:47.356Z,7.26
2018-11-14T06:16:47.331Z,7.23
2018-11-14T06:17:47.311Z,7.26
2018-11-14T06:18:47.284Z,7.19
2018-11-14T06:19:47.259Z,7.25
2018-11-14T06:20:47.239Z,7.19
2018-11-14T06:21:47.271Z,7.26
2018-11-14T06:22:47.191Z,7.23
2018-11-14T06:23:47.303Z,7.32
2018-11-14T06:24:47.144Z,7.29
2018-11-14T06:25:47.119Z,7.31
2018-11-14T06:26:47.097Z,7.32
2018-11-14T06:27:47.075Z,7.39
2018-11-14T06:28:47.049Z,7.44
2018-11-14T06:29:47.106Z,7.29
2018-11-14T06:30:47.000Z,7.28
2018-11-14T06:31:46.977Z,7.33
2018-11-14T06:32:46.955Z,7.32
2018-11-14T06:33:46.932Z,7.28
2018-11-14T06:34:46.909Z,7.33
2018-11-14T06:35:46.884Z,7.33
2018-11-14T06:36:46.888Z,7.41
2018-11-14T06:37:46.836Z,7.41
2018-11-14T06:38:46.814Z,7.43
2018-11-14T06:39:46.788Z,7.39
2018-11-14T06:40:46.769Z,7.39
2018-11-14T06:41:46.806Z,7.47
2018-11-14T06:42:46.746Z,7.43
2018-11-14T06:43:46.695Z,7.41
2018-11-14T06:44:46.676Z,7.32
2018-11-14T06:45:46.647Z,7.31
2018-11-14T06:46:46.645Z,7.28
2018-11-14T06:47:46.601Z,7.36
2018-11-14T06:48:46.578Z,7.32
2018-11-14T06:49:46.605Z,7.36
2018-11-14T06:50:46.529Z,7.25
2018-11-14T06:51:46.506Z,7.29
2018-11-14T06:52:46.483Z,7.33
2018-11-14T06:53:46.461Z,7.22
2018-11-14T06:54:46.437Z,7.23
2018-11-14T06:55:46.413Z,7.22
2018-11-14T06:56:46.386Z,7.21
2018-11-14T06:57:46.366Z,7.23
2018-11-14T06:58:46.412Z,7.21
2018-11-14T06:59:46.353Z,7.21
2018-11-14T07:00:46.293Z,7.23
2018-11-14T07:01:46.271Z,7.19
2018-11-14T07:02:46.245Z,7.23
2018-11-14T07:03:46.223Z,7.22
2018-11-14T07:04:46.262Z,7.23
2018-11-14T07:05:46.346Z,7.25
2018-11-14T07:06:46.151Z,7.19
2018-11-14T07:07:46.127Z,7.22
2018-11-14T07:08:46.104Z,7.23
2018-11-14T07:09:46.081Z,7.15
2018-11-14T07:10:46.107Z,7.18
2018-11-14T07:11:46.032Z,7.23
2018-11-14T07:12:46.009Z,7.23
2018-11-14T07:13:45.984Z,7.21
2018-11-14T07:14:45.965Z,7.26
2018-11-14T07:15:45.938Z,7.22
2018-11-14T07:16:45.917Z,7.26
2018-11-14T07:17:45.923Z,7.21
2018-11-14T07:18:45.871Z,7.19
2018-11-14T07:19:45.867Z,7.13
2018-11-14T07:20:45.819Z,7.13
2018-11-14T07:21:45.795Z,7.19
2018-11-14T07:22:45.777Z,7.25
2018-11-14T07:23:45.756Z,7.19
2018-11-14T07:24:45.825Z,7.19
2018-11-14T07:25:45.701Z,7.23
2018-11-14T07:26:45.677Z,7.26
2018-11-14T07:27:45.655Z,7.26
2018-11-14T07:28:45.634Z,7.33
2018-11-14T07:29:45.608Z,7.31
2018-11-14T07:30:45.583Z,7.36
2018-11-14T07:31:45.559Z,7.32
2018-11-14T07:32:45.536Z,7.36
2018-11-14T07:33:45.513Z,7.32
2018-11-14T07:34:45.487Z,7.43
2018-11-14T07:35:45.469Z,7.40
2018-11-14T07:36:45.444Z,7.40
2018-11-14T07:37:45.471Z,7.39
2018-11-14T07:38:45.394Z,7.43
2018-11-14T07:39:45.368Z,7.41
2018-11-14T07:40:45.349Z,7.48
2018-11-14T07:41:45.324Z,7.44
2018-11-14T07:42:45.864Z,7.44
2018-11-14T07:43:45.331Z,7.43
2018-11-14T07:44:45.249Z,7.48
2018-11-14T07:45:45.226Z,7.47
2018-11-14T07:46:45.203Z,7.56
2018-11-14T07:47:45.178Z,7.61
2018-11-14T07:48:45.179Z,7.59
2018-11-14T07:49:45.131Z,7.62
2018-11-14T07:50:45.108Z,7.66
2018-11-14T07:51:45.085Z,7.77
2018-11-14T07:52:45.061Z,7.66
2018-11-14T07:53:45.048Z,7.61
2018-11-14T07:54:45.072Z,7.70
2018-11-14T07:55:44.992Z,7.81
2018-11-14T07:56:44.965Z,7.77
2018-11-14T07:57:44.942Z,7.75
2018-11-14T07:58:44.919Z,7.78
2018-11-14T07:59:44.894Z,7.77
2018-11-14T08:00:44.872Z,7.85
2018-11-14T08:01:44.855Z,7.84
2018-11-14T08:02:44.824Z,7.80
2018-11-14T08:03:44.806Z,7.84
2018-11-14T08:04:44.779Z,7.81
2018-11-14T08:05:44.753Z,7.91
2018-11-14T08:06:44.733Z,7.95
2018-11-14T08:07:44.734Z,7.93
2018-11-14T08:08:44.691Z,7.95
2018-11-14T08:09:44.659Z,8.03
2018-11-14T08:10:44.637Z,7.95
2018-11-14T08:11:44.611Z,8.03
2018-11-14T08:12:44.591Z,8.09
2018-11-14T08:13:44.565Z,8.08
2018-11-14T08:14:44.543Z,8.17
2018-11-14T08:15:44.518Z,8.14
2018-11-14T08:16:44.496Z,8.16
2018-11-14T08:17:44.472Z,8.20
2018-11-14T08:18:44.490Z,8.16
2018-11-14T08:19:44.429Z,8.27
2018-11-14T08:20:44.400Z,8.17
2018-11-14T08:21:44.379Z,8.26
2018-11-14T08:22:44.355Z,8.26
2018-11-14T08:23:44.333Z,8.24
2018-11-14T08:24:44.310Z,8.20
2018-11-14T08:25:44.284Z,8.26
2018-11-14T08:26:44.262Z,8.27
2018-11-14T08:27:44.236Z,8.34
2018-11-14T08:28:44.215Z,8.41
2018-11-14T08:29:44.193Z,8.35
2018-11-14T08:30:44.302Z,8.41
2018-11-14T08:31:44.142Z,8.41
2018-11-14T08:32:44.124Z,8.46
2018-11-14T08:33:44.097Z,8.44
2018-11-14T08:34:44.074Z,8.41
2018-11-14T08:35:44.049Z,8.39
2018-11-14T08:36:44.027Z,8.42
2018-11-14T08:37:44.003Z,8.42
2018-11-14T08:38:43.988Z,8.49
2018-11-14T08:39:43.961Z,8.41
2018-11-14T08:40:43.939Z,8.41
2018-11-14T08:41:43.912Z,8.57
2018-11-14T08:42:43.888Z,8.56
2018-11-14T08:43:43.863Z,8.59
2018-11-14T08:44:43.840Z,8.61
2018-11-14T08:45:43.835Z,8.68
2018-11-14T08:46:43.800Z,8.66
2018-11-14T08:47:43.772Z,8.68
2018-11-14T08:48:43.748Z,8.69
2018-11-14T08:49:43.729Z,8.71
2018-11-14T08:50:43.702Z,8.63
2018-11-14T08:51:43.679Z,8.69
2018-11-14T08:52:43.655Z,8.64
2018-11-14T08:53:43.632Z,8.77
2018-11-14T08:54:43.620Z,8.74
2018-11-14T08:55:43.585Z,8.69
2018-11-14T08:56:43.563Z,8.75
2018-11-14T08:57:43.544Z,8.81
2018-11-14T08:58:43.517Z,8.86
2018-11-14T08:59:43.492Z,8.82
2018-11-14T09:00:43.469Z,8.81
2018-11-14T09:01:43.448Z,8.79
2018-11-14T09:02:43.427Z,8.92
2018-11-14T09:03:43.402Z,8.92
2018-11-14T09:04:43.380Z,8.93
2018-11-14T09:05:43.356Z,8.97
2018-11-14T09:06:43.335Z,8.93
2018-11-14T09:07:43.365Z,9.05
2018-11-14T09:08:43.293Z,9.08
2018-11-14T09:09:43.263Z,9.02
2018-11-14T09:10:43.243Z,9.18
2018-11-14T09:11:43.222Z,9.12
2018-11-14T09:12:43.212Z,9.16
2018-11-14T09:13:43.176Z,9.09
2018-11-14T09:14:43.878Z,9.16
2018-11-14T09:15:43.131Z,9.21
2018-11-14T09:16:43.104Z,9.26
2018-11-14T09:17:43.084Z,9.19
2018-11-14T09:18:43.135Z,9.22
2018-11-14T09:19:43.037Z,9.21
2018-11-14T09:20:43.016Z,9.31
2018-11-14T09:21:42.994Z,9.34
2018-11-14T09:22:42.967Z,9.34
2018-11-14T09:23:42.956Z,9.37
2018-11-14T09:24:42.946Z,9.42
2018-11-14T09:25:42.907Z,9.37
2018-11-14T09:26:42.889Z,9.37
2018-11-14T09:27:42.854Z,9.40
2018-11-14T09:28:42.835Z,9.42
2018-11-14T09:29:42.809Z,9.52
2018-11-14T09:30:42.786Z,9.51
2018-11-14T09:31:42.766Z,9.55
2018-11-14T09:32:42.741Z,9.62
2018-11-14T09:33:42.720Z,9.54
2018-11-14T09:34:42.758Z,9.63
2018-11-14T09:35:42.672Z,9.67
2018-11-14T09:36:42.651Z,9.69
2018-11-14T09:37:42.628Z,9.70
2018-11-14T09:38:42.607Z,9.73
2018-11-14T09:39:42.583Z,9.80
2018-11-14T09:40:42.591Z,9.82
2018-11-14T09:41:42.540Z,9.85
2018-11-14T09:42:42.516Z,9.91
2018-11-14T09:43:42.501Z,9.88
2018-11-14T09:44:42.478Z,9.91
2018-11-14T09:45:42.450Z,9.87
2018-11-14T09:46:42.426Z,10.06
2018-11-14T09:47:42.406Z,9.94
2018-11-14T09:48:42.382Z,9.95
2018-11-14T09:49:42.363Z,10.02
2018-11-14T09:50:42.341Z,10.23
2018-11-14T09:51:42.316Z,10.17
2018-11-14T09:52:42.294Z,10.12
2018-11-14T09:53:42.275Z,10.15
2018-11-14T09:54:42.257Z,10.13
2018-11-14T09:55:42.230Z,10.21
2018-11-14T09:56:42.268Z,10.28
2018-11-14T09:57:42.185Z,10.25
2018-11-14T09:58:42.269Z,10.25
2018-11-14T09:59:42.138Z,10.33
2018-11-14T10:00:42.179Z,10.24
2018-11-14T10:01:42.099Z,10.21
2018-11-14T10:02:42.116Z,10.34
2018-11-14T10:03:42.050Z,10.27
2018-11-14T10:04:42.028Z,10.31
2018-11-14T10:05:42.056Z,10.30
2018-11-14T10:06:41.988Z,10.39
2018-11-14T10:07:41.968Z,10.43
2018-11-14T10:08:41.944Z,10.39
2018-11-14T10:09:41.920Z,10.46
2018-11-14T10:10:41.896Z,10.45
2018-11-14T10:11:41.873Z,10.49
2018-11-14T10:12:41.850Z,10.55
2018-11-14T10:13:41.829Z,10.55
2018-11-14T10:14:41.809Z,10.55
2018-11-14T10:15:41.908Z,10.55
2018-11-14T10:16:41.764Z,10.62
2018-11-14T10:17:41.744Z,10.64
2018-11-14T10:18:41.721Z,10.62
2018-11-14T10:19:41.700Z,10.58
2018-11-14T10:20:41.677Z,10.61
2018-11-14T10:21:41.685Z,10.61
2018-11-14T10:22:41.632Z,10.67
2018-11-14T10:23:41.612Z,10.68
2018-11-14T10:24:41.642Z,10.72
2018-11-14T10:25:41.571Z,10.77
2018-11-14T10:26:41.546Z,10.80
2018-11-14T10:27:41.527Z,10.84
2018-11-14T10:28:41.502Z,10.82
2018-11-14T10:29:41.482Z,10.87
2018-11-14T10:30:41.461Z,10.84
2018-11-14T10:31:41.533Z,10.89
2018-11-14T10:32:41.417Z,10.94
2018-11-14T10:33:41.399Z,10.92
2018-11-14T10:34:41.378Z,10.98
2018-11-14T10:35:41.355Z,11.08
2018-11-14T10:36:41.332Z,11.00
2018-11-14T10:37:41.309Z,11.02
2018-11-14T10:38:41.287Z,11.02
2018-11-14T10:39:41.264Z,11.10
2018-11-14T10:40:41.243Z,11.19
2018-11-14T10:41:41.223Z,11.16
2018-11-14T10:42:41.230Z,11.13
2018-11-14T10:43:41.180Z,11.19
2018-11-14T10:44:41.160Z,11.15
2018-11-14T10:45:41.152Z,11.20
2018-11-14T10:46:41.798Z,11.27
2018-11-14T10:47:41.094Z,11.34
2018-11-14T10:48:41.075Z,11.27
2018-11-14T10:49:41.053Z,11.33
2018-11-14T10:50:41.067Z,11.31
2018-11-14T10:51:41.010Z,11.44
2018-11-14T10:52:40.988Z,11.37
2018-11-14T10:53:40.968Z,11.48
2018-11-14T10:54:40.947Z,11.49
2018-11-14T10:55:40.924Z,11.52
2018-11-14T10:56:40.906Z,11.53
2018-11-14T10:57:40.883Z,11.56
2018-11-14T10:58:40.861Z,11.63
2018-11-14T10:59:40.839Z,11.63
2018-11-14T11:00:40.827Z,11.71
2018-11-14T11:01:40.799Z,11.81
2018-11-14T11:02:40.780Z,11.78
2018-11-14T11:03:40.764Z,11.91
2018-11-14T11:04:40.740Z,11.93
2018-11-14T11:05:40.715Z,11.83
2018-11-14T11:06:40.694Z,11.97
2018-11-14T11:07:40.673Z,11.93
2018-11-14T11:08:40.730Z,11.97
2018-11-14T11:09:40.631Z,11.97
2018-11-14T11:10:40.611Z,11.99
2018-11-14T11:11:40.588Z,12.10
2018-11-14T11:12:40.572Z,12.08
2018-11-14T11:13:40.619Z,12.08
2018-11-14T11:14:40.531Z,12.12
2018-11-14T11:15:40.582Z,12.12
2018-11-14T11:16:40.487Z,12.20
2018-11-14T11:17:40.466Z,12.12
2018-11-14T11:18:40.446Z,12.21
2018-11-14T11:19:40.423Z,12.30
2018-11-14T11:20:40.403Z,12.33
2018-11-14T11:21:40.382Z,12.37
2018-11-14T11:22:40.367Z,12.37
2018-11-14T11:23:40.393Z,12.43
2018-11-14T11:24:40.322Z,12.58
2018-11-14T11:25:40.300Z,12.55
2018-11-14T11:26:40.283Z,12.58
2018-11-14T11:27:40.270Z,12.61
2018-11-14T11:28:40.240Z,12.61
2018-11-14T11:29:40.220Z,12.58
2018-11-14T11:30:40.228Z,12.63
2018-11-14T11:31:40.178Z,12.62
2018-11-14T11:32:40.159Z,12.63
2018-11-14T11:33:40.139Z,12.68
2018-11-14T11:34:40.117Z,12.72
2018-11-14T11:35:40.097Z,12.72
2018-11-14T11:36:40.076Z,12.80
2018-11-14T11:37:40.060Z,12.76
2018-11-14T11:38:40.036Z,12.78
2018-11-14T11:39:40.016Z,12.72
2018-11-14T11:40:39.996Z,12.81
2018-11-14T11:41:39.978Z,12.73
2018-11-14T11:42:39.955Z,12.78
2018-11-14T11:43:39.938Z,12.76
2018-11-14T11:44:39.914Z,12.86
2018-11-14T11:45:39.895Z,12.84
2018-11-14T11:46:39.881Z,12.88
2018-11-14T11:47:39.858Z,12.87
2018-11-14T11:48:39.835Z,12.86
2018-11-14T11:49:39.814Z,12.80
2018-11-14T11:50:39.794Z,12.88
2018-11-14T11:51:39.773Z,12.91
2018-11-14T11:52:39.754Z,12.90
2018-11-14T11:53:39.736Z,12.84
2018-11-14T11:54:39.715Z,12.93
2018-11-14T11:55:39.693Z,12.90
2018-11-14T11:56:39.768Z,12.90
2018-11-14T11:57:39.684Z,12.95
2018-11-14T11:58:39.637Z,12.94
2018-11-14T11:59:39.786Z,12.98
2018-11-14T12:00:39.856Z,12.94
2018-11-14T12:01:39.577Z,13.02
2018-11-14T12:02:39.553Z,12.98
2018-11-14T12:03:39.534Z,13.06
2018-11-14T12:04:39.673Z,13.08
2018-11-14T12:05:39.504Z,13.09
2018-11-14T12:06:39.497Z,13.05
2018-11-14T12:07:39.456Z,13.06
2018-11-14T12:08:39.435Z,13.17
2018-11-14T12:09:39.414Z,13.16
2018-11-14T12:10:39.436Z,13.16
2018-11-14T12:11:39.376Z,13.12
2018-11-14T12:12:39.855Z,13.20
2018-11-14T12:13:39.359Z,13.20
2018-11-14T12:14:39.314Z,13.13
2018-11-14T12:15:39.294Z,13.19
2018-11-14T12:16:39.274Z,13.23
2018-11-14T12:17:39.264Z,13.16
2018-11-14T12:18:39.235Z,13.20
2018-11-14T12:19:39.217Z,13.21
2018-11-14T12:20:39.396Z,13.31
2018-11-14T12:21:39.179Z,13.26
2018-11-14T12:22:39.324Z,13.28
2018-11-14T12:23:39.750Z,13.31
2018-11-14T12:24:39.117Z,13.37
2018-11-14T12:25:39.097Z,13.43
2018-11-14T12:26:39.084Z,13.37
2018-11-14T12:27:39.105Z,13.45
2018-11-14T12:28:39.037Z,13.43
2018-11-14T12:29:39.017Z,13.46
2018-11-14T12:30:39.182Z,13.61
2018-11-14T12:31:38.978Z,13.58
2018-11-14T12:32:38.957Z,13.55
2018-11-14T12:33:39.592Z,13.62
2018-11-14T12:34:39.010Z,13.55
2018-11-14T12:35:38.932Z,13.55
2018-11-14T12:36:38.879Z,13.60
2018-11-14T12:37:38.858Z,13.54
2018-11-14T12:38:38.904Z,13.64
2018-11-14T12:39:38.820Z,13.58
2018-11-14T12:40:39.293Z,13.61
2018-11-14T12:41:38.782Z,13.60
2018-11-14T12:42:38.762Z,13.64
2018-11-14T12:43:38.745Z,13.54
2018-11-14T12:44:38.721Z,13.67
2018-11-14T12:45:38.700Z,13.73
2018-11-14T12:46:38.682Z,13.71
2018-11-14T12:47:38.661Z,13.65
2018-11-14T12:48:38.646Z,13.78
2018-11-14T12:49:38.623Z,13.61
2018-11-14T12:50:38.603Z,13.75
2018-11-14T12:51:38.582Z,13.65
2018-11-14T12:52:38.627Z,13.75
2018-11-14T12:53:38.548Z,13.67
2018-11-14T12:54:38.526Z,13.71
2018-11-14T12:55:38.536Z,13.67
2018-11-14T12:56:38.486Z,13.68
2018-11-14T12:57:38.465Z,13.76
2018-11-14T12:58:38.446Z,13.78
2018-11-14T12:59:38.461Z,13.71
2018-11-14T13:00:38.405Z,13.80
2018-11-14T13:01:38.386Z,13.82
2018-11-14T13:02:38.370Z,13.82
2018-11-14T13:03:38.346Z,13.79
2018-11-14T13:04:38.325Z,13.79
2018-11-14T13:05:38.307Z,13.79
2018-11-14T13:06:38.288Z,13.85
2018-11-14T13:07:38.270Z,13.79
2018-11-14T13:08:38.248Z,13.80
2018-11-14T13:09:38.228Z,13.83
2018-11-14T13:10:38.211Z,13.82
2018-11-14T13:11:38.188Z,13.76